Airfield :
LOGIN :

Register | Disclaimer

   EN    FR    IT 

 










Legend :    VFR   Marginal VFR   IFR   Intensive IFR   Very Intensive IFR
Visi :
Ceiling :
>= 8 km
>= 3000ft
5 to 8 km
1000 to 3000 ft
1500m to 5 km
500 to 1000 ft
800 to 1500m
200 to 500 ft
< 800m
< 200 ft
Symbols :   Thunderstorms  Fog  Heavy snow  Heavy precipitations  Wind > 20 kt
SIGMETs :     Misc.  Thunderstorms  Icing  Turbulence  Mountain Waves  Volcanic Ashes






- Airport Elevation : 1115 ft
- IATA code : GRZ


LOWG - Graz

CURRENT METAR :
  • 030950Z 20007KT 170V240 9999 FEW060 FEW060TCU 23/07 Q1006 NOSIG

EXPIRED METARs :
  • 030920Z 03005KT 320V110 9999 FEW060 FEW060TCU 23/06 Q1007 TEMPO 35007KT
  • 030850Z 31004KT 220V030 9999 FEW060 23/07 Q1007 TEMPO 35007KT
  • 030820Z VRB03KT 9999 FEW060 22/07 Q1007 TEMPO 35007KT
  • 030750Z 30003KT 240V020 9999 FEW060 21/07 Q1007 TEMPO 35007KT
  • 030720Z 28003KT 210V010 9999 FEW060 20/09 Q1008 TEMPO 35007KT

TAF TAF LOWG
Valid from the 03 at 06:00 until the 04 at 06:00 UTC


030515Z 0306/0406 VRB06KT 9999 SCT070 TX23/0312Z TN10/0403Z
TEMPO 0310/0318 16008KT FEW060CB FEW070
PROB30
TEMPO 0313/0317 35010KT TSRA SCT060CB
TEMPO 0402/0405 3000 BCFG



MET'MAP, your aeronautical weather chart ! - Copyright ORBIFLY December 2007 - Disclaimer

ORBIFLY MET'MAP TEAM :

Programming & Development : Alexandra Zaïnal
Concept & original design : Baudouin d'Aumeries
Assistance for programming : Marc-Olivier Méhu
Technical & hardware support : Manuel Goepfert

Contact : metmap@orbifly.com




SOURCES & CREDITS :

   NOAA